createdAt,value
2022-10-01T00:02:07.697Z,17.97
2022-10-01T00:04:38.096Z,17.80
2022-10-01T00:07:09.856Z,17.82
2022-10-01T00:09:42.766Z,17.82
2022-10-01T00:12:09.990Z,17.90
2022-10-01T00:14:40.508Z,17.99
2022-10-01T00:17:14.102Z,18.36
2022-10-01T00:19:48.841Z,18.06
2022-10-01T00:22:26.621Z,18.27
2022-10-01T00:25:06.409Z,18.22
2022-10-01T00:27:42.662Z,18.01
2022-10-01T00:30:10.479Z,18.12
2022-10-01T00:32:41.621Z,18.29
2022-10-01T00:35:16.320Z,18.13
2022-10-01T00:37:52.529Z,18.24
2022-10-01T00:40:25.388Z,18.15
2022-10-01T00:42:55.143Z,18.12
2022-10-01T00:45:24.363Z,18.29
2022-10-01T00:47:58.679Z,18.43
2022-10-01T00:50:39.338Z,17.98
2022-10-01T00:53:17.081Z,18.48
2022-10-01T00:55:51.317Z,17.89
2022-10-01T00:58:29.438Z,18.22
2022-10-01T01:00:57.961Z,18.16
2022-10-01T01:03:48.726Z,18.08
2022-10-01T01:06:18.609Z,18.15
2022-10-01T01:08:46.410Z,18.15
2022-10-01T01:11:18.727Z,18.29
2022-10-01T01:13:52.559Z,18.47
2022-10-01T01:16:37.856Z,18.21
2022-10-01T01:19:14.655Z,18.07
2022-10-01T01:21:53.640Z,18.46
2022-10-01T01:24:40.938Z,18.35
2022-10-01T01:27:08.191Z,18.16
2022-10-01T01:30:08.141Z,18.24
2022-10-01T01:32:42.213Z,18.21
2022-10-01T01:35:13.002Z,18.27
2022-10-01T01:37:48.002Z,18.51
2022-10-01T01:40:23.263Z,18.36
2022-10-01T01:42:51.337Z,18.18
2022-10-01T01:45:23.260Z,18.67
2022-10-01T01:48:18.253Z,18.38
2022-10-01T01:51:03.258Z,18.32
2022-10-01T01:53:32.489Z,18.63
2022-10-01T01:56:00.826Z,18.31
2022-10-01T01:58:31.994Z,18.30
2022-10-01T02:01:02.262Z,18.74
2022-10-01T02:03:31.329Z,18.14
2022-10-01T02:06:23.410Z,18.67
2022-10-01T02:09:08.626Z,18.54
2022-10-01T02:11:44.769Z,18.40
2022-10-01T02:14:44.603Z,18.31
2022-10-01T02:17:39.328Z,18.51
2022-10-01T02:20:29.951Z,18.27
2022-10-01T02:23:07.458Z,18.56
2022-10-01T02:25:40.348Z,18.44
2022-10-01T02:28:16.024Z,18.29
2022-10-01T02:30:45.394Z,18.33
2022-10-01T02:33:18.648Z,18.77
2022-10-01T02:35:49.010Z,18.69
2022-10-01T02:38:18.531Z,18.62
2022-10-01T02:40:48.506Z,18.35
2022-10-01T02:43:24.281Z,18.35
2022-10-01T02:45:56.918Z,18.77
2022-10-01T02:48:24.467Z,18.67
2022-10-01T02:50:57.545Z,18.76
2022-10-01T02:54:02.833Z,18.51
2022-10-01T02:56:49.521Z,18.79
2022-10-01T02:59:17.465Z,18.64
2022-10-01T03:01:45.159Z,18.64
2022-10-01T03:04:13.758Z,18.76
2022-10-01T03:06:42.232Z,18.46
2022-10-01T03:09:09.407Z,18.43
2022-10-01T03:11:36.670Z,18.82
2022-10-01T03:14:07.064Z,18.61
2022-10-01T03:16:34.202Z,18.76
2022-10-01T03:19:01.610Z,18.58
2022-10-01T03:21:30.401Z,18.66
2022-10-01T03:23:57.808Z,18.64
2022-10-01T03:26:24.959Z,18.72
2022-10-01T03:28:52.206Z,18.74
2022-10-01T03:31:19.407Z,18.78
2022-10-01T03:33:46.691Z,18.92
2022-10-01T03:36:13.923Z,18.81
2022-10-01T03:38:41.845Z,18.52
2022-10-01T03:41:09.517Z,18.57
2022-10-01T03:43:36.793Z,18.82
2022-10-01T03:46:05.510Z,18.89
2022-10-01T03:48:33.037Z,18.97
2022-10-01T03:51:00.716Z,18.88
2022-10-01T03:53:28.864Z,18.66
2022-10-01T03:55:56.202Z,18.76
2022-10-01T03:58:30.760Z,18.94
2022-10-01T04:00:59.491Z,18.50
2022-10-01T04:03:30.950Z,18.52
2022-10-01T04:05:58.411Z,18.95
2022-10-01T04:08:27.716Z,18.53
2022-10-01T04:10:56.396Z,18.77
2022-10-01T04:13:26.670Z,18.74
2022-10-01T04:15:58.759Z,18.71
2022-10-01T04:18:29.175Z,18.62
2022-10-01T04:21:01.386Z,19.09
2022-10-01T04:23:28.566Z,18.82
2022-10-01T04:25:59.878Z,18.67
2022-10-01T04:28:27.194Z,19.01
2022-10-01T04:31:14.448Z,18.72
2022-10-01T04:33:42.272Z,18.79
2022-10-01T04:36:09.400Z,18.76
2022-10-01T04:38:36.642Z,19.06
2022-10-01T04:41:03.940Z,18.88
2022-10-01T04:43:31.113Z,18.95
2022-10-01T04:45:59.822Z,18.88
2022-10-01T04:48:28.267Z,18.78
2022-10-01T04:50:55.446Z,19.01
2022-10-01T04:53:22.630Z,19.16
2022-10-01T04:55:49.894Z,18.82
2022-10-01T04:58:19.936Z,18.91
2022-10-01T05:00:51.686Z,18.86
2022-10-01T05:03:19.894Z,18.74
2022-10-01T05:05:47.012Z,18.94
2022-10-01T05:08:14.319Z,19.02
2022-10-01T05:10:41.770Z,19.03
2022-10-01T05:13:11.448Z,19.16
2022-10-01T05:15:40.023Z,19.07
2022-10-01T05:18:11.455Z,19.07
2022-10-01T05:20:41.130Z,19.02
2022-10-01T05:23:08.375Z,18.87
2022-10-01T05:25:38.522Z,19.29
2022-10-01T05:28:06.153Z,18.98
2022-10-01T05:30:34.805Z,18.95
2022-10-01T05:33:03.871Z,19.00
2022-10-01T05:35:32.058Z,19.07
2022-10-01T05:38:01.670Z,19.03
2022-10-01T05:40:29.680Z,19.18
2022-10-01T05:43:00.030Z,19.20
2022-10-01T05:45:32.032Z,19.13
2022-10-01T05:48:06.510Z,19.04
2022-10-01T05:50:43.354Z,19.06
2022-10-01T05:53:12.315Z,19.08
2022-10-01T05:55:39.468Z,19.04
2022-10-01T05:58:13.385Z,19.31
2022-10-01T06:00:43.043Z,19.00
2022-10-01T06:03:15.684Z,19.07
2022-10-01T06:05:44.791Z,19.09
2022-10-01T06:08:12.018Z,19.22
2022-10-01T06:10:41.199Z,19.25
2022-10-01T06:13:14.254Z,19.17
2022-10-01T06:15:41.467Z,19.14
2022-10-01T06:18:10.787Z,19.25
2022-10-01T06:20:39.109Z,18.99
2022-10-01T06:23:09.856Z,19.42
2022-10-01T06:25:38.674Z,19.05
2022-10-01T06:28:09.086Z,19.09
2022-10-01T06:30:44.009Z,19.40
2022-10-01T06:33:13.753Z,19.21
2022-10-01T06:35:43.662Z,19.13
2022-10-01T06:38:11.923Z,19.38
2022-10-01T06:40:39.836Z,19.50
2022-10-01T06:43:10.588Z,19.26
2022-10-01T06:45:40.985Z,19.24
2022-10-01T06:48:08.663Z,19.03
2022-10-01T06:50:35.956Z,19.57
2022-10-01T06:53:03.175Z,19.10
2022-10-01T06:55:35.367Z,19.39
2022-10-01T06:58:08.673Z,19.12
2022-10-01T07:00:38.461Z,19.32
2022-10-01T07:03:11.241Z,19.18
2022-10-01T07:05:39.743Z,19.36
2022-10-01T07:08:08.900Z,19.22
2022-10-01T07:10:36.571Z,19.53
2022-10-01T07:13:12.562Z,19.10
2022-10-01T07:15:40.600Z,19.37
2022-10-01T07:18:09.956Z,19.42
2022-10-01T07:20:40.781Z,19.17
2022-10-01T07:23:15.755Z,19.11
2022-10-01T07:25:43.972Z,19.29
2022-10-01T07:28:24.190Z,19.04
2022-10-01T07:31:04.210Z,19.41
2022-10-01T07:33:32.103Z,19.30
2022-10-01T07:36:04.286Z,19.29
2022-10-01T07:38:36.158Z,19.57
2022-10-01T07:41:06.274Z,19.47
2022-10-01T07:43:35.978Z,19.39
2022-10-01T07:46:10.767Z,19.67
2022-10-01T07:48:38.152Z,19.71
2022-10-01T07:51:05.328Z,19.74
2022-10-01T07:53:36.051Z,19.57
2022-10-01T07:56:06.316Z,19.38
2022-10-01T07:58:42.486Z,19.64
2022-10-01T08:01:25.961Z,19.66
2022-10-01T08:03:53.876Z,19.29
2022-10-01T08:06:25.839Z,19.47
2022-10-01T08:08:57.591Z,19.55
2022-10-01T08:11:27.080Z,19.62
2022-10-01T08:13:57.603Z,19.37
2022-10-01T08:16:35.232Z,19.66
2022-10-01T08:19:02.456Z,19.55
2022-10-01T08:21:36.999Z,19.44
2022-10-01T08:24:08.130Z,19.74
2022-10-01T08:26:40.983Z,19.66
2022-10-01T08:29:08.245Z,19.79
2022-10-01T08:31:39.503Z,19.62
2022-10-01T08:34:06.828Z,19.55
2022-10-01T08:36:40.427Z,19.67
2022-10-01T08:39:20.901Z,19.34
2022-10-01T08:42:55.936Z,19.29
2022-10-01T08:45:36.744Z,19.69
2022-10-01T08:48:57.191Z,19.63
2022-10-01T08:51:43.062Z,19.71
2022-10-01T08:54:34.748Z,19.42
2022-10-01T08:57:04.742Z,19.78
2022-10-01T08:59:44.165Z,19.39
2022-10-01T09:02:31.398Z,19.74
2022-10-01T09:05:05.185Z,19.39
2022-10-01T09:07:50.524Z,19.63
2022-10-01T09:10:59.380Z,19.65
2022-10-01T09:13:54.318Z,19.63
2022-10-01T09:16:42.790Z,19.42
2022-10-01T09:19:45.083Z,19.53
2022-10-01T09:22:41.110Z,19.59
2022-10-01T09:25:28.846Z,19.79
2022-10-01T09:28:03.629Z,19.62
2022-10-01T09:30:43.983Z,19.66
2022-10-01T09:33:21.077Z,19.77
2022-10-01T09:36:02.090Z,19.57
2022-10-01T09:38:44.992Z,19.77
2022-10-01T09:41:16.815Z,19.67
2022-10-01T09:43:45.241Z,19.56
2022-10-01T09:46:18.991Z,19.55
2022-10-01T09:48:55.396Z,19.66
2022-10-01T09:51:40.657Z,19.52
2022-10-01T09:54:32.225Z,19.54
2022-10-01T09:57:07.613Z,19.88
2022-10-01T09:59:58.151Z,19.65
2022-10-01T10:02:32.474Z,19.76
2022-10-01T10:05:08.065Z,19.52
2022-10-01T10:07:37.437Z,19.53
2022-10-01T10:10:25.774Z,19.46
2022-10-01T10:13:27.753Z,19.72
2022-10-01T10:16:00.694Z,19.75
2022-10-01T10:18:35.968Z,19.62
2022-10-01T10:21:21.094Z,19.40
2022-10-01T10:23:55.208Z,19.72
2022-10-01T10:26:43.795Z,19.81
2022-10-01T10:29:27.373Z,19.63
2022-10-01T10:31:55.746Z,19.47
2022-10-01T10:34:36.491Z,19.46
2022-10-01T10:37:09.378Z,19.48
2022-10-01T10:39:41.608Z,19.52
2022-10-01T10:42:26.364Z,19.70
2022-10-01T10:44:57.371Z,19.37
2022-10-01T10:47:24.916Z,19.70
2022-10-01T10:49:57.824Z,19.74
2022-10-01T10:52:34.202Z,19.96
2022-10-01T10:55:21.755Z,19.63
2022-10-01T10:57:57.311Z,19.72
2022-10-01T11:00:27.897Z,19.58
2022-10-01T11:03:07.456Z,19.90
2022-10-01T11:05:44.254Z,19.60
2022-10-01T11:08:22.794Z,19.49
2022-10-01T11:11:14.712Z,19.67
2022-10-01T11:14:22.715Z,19.78
2022-10-01T11:17:22.709Z,19.73
2022-10-01T11:20:42.547Z,19.79
2022-10-01T11:23:18.494Z,19.75
2022-10-01T11:25:59.338Z,19.48
2022-10-01T11:28:48.970Z,19.42
2022-10-01T11:31:55.052Z,19.76
2022-10-01T11:34:50.856Z,19.65
2022-10-01T11:38:09.008Z,19.52
2022-10-01T11:40:42.635Z,19.42
2022-10-01T11:43:31.286Z,19.57
2022-10-01T11:46:18.353Z,19.57
2022-10-01T11:48:57.812Z,19.53
2022-10-01T11:51:34.096Z,19.60
2022-10-01T11:54:10.134Z,19.37
2022-10-01T11:57:01.687Z,19.44
2022-10-01T11:59:38.059Z,19.55
2022-10-01T12:02:35.083Z,19.71
2022-10-01T12:05:26.233Z,19.53
2022-10-01T12:08:26.782Z,19.64
2022-10-01T12:11:06.360Z,19.74
2022-10-01T12:13:55.513Z,19.61
2022-10-01T12:17:03.438Z,19.32
2022-10-01T12:19:35.021Z,19.37
2022-10-01T12:22:13.660Z,19.42
2022-10-01T12:24:45.816Z,19.38
2022-10-01T12:27:24.665Z,19.37
2022-10-01T12:30:06.867Z,19.49
2022-10-01T12:33:17.437Z,18.96
2022-10-01T12:36:18.968Z,19.20
2022-10-01T12:39:04.500Z,19.14
2022-10-01T12:41:55.584Z,19.03
2022-10-01T12:44:32.779Z,19.53
2022-10-01T12:47:24.993Z,19.06
2022-10-01T12:50:18.210Z,19.18
2022-10-01T12:53:03.257Z,19.51
2022-10-01T12:55:39.614Z,19.04
2022-10-01T12:58:26.117Z,19.18
2022-10-01T13:01:15.658Z,19.27
2022-10-01T13:04:22.518Z,18.84
2022-10-01T13:07:20.532Z,19.19
2022-10-01T13:09:58.118Z,19.03
2022-10-01T13:12:59.787Z,19.15
2022-10-01T13:15:33.053Z,19.18
2022-10-01T13:18:39.382Z,19.06
2022-10-01T13:21:32.613Z,19.07
2022-10-01T13:24:36.652Z,18.96
2022-10-01T13:27:39.478Z,18.87
2022-10-01T13:30:18.901Z,18.92
2022-10-01T13:33:06.799Z,18.83
2022-10-01T13:35:39.724Z,18.89
2022-10-01T13:38:29.673Z,18.97
2022-10-01T13:41:03.702Z,18.92
2022-10-01T13:43:35.212Z,18.98
2022-10-01T13:46:09.426Z,19.05
2022-10-01T13:48:44.715Z,18.81
2022-10-01T13:51:14.894Z,18.68
2022-10-01T13:53:42.040Z,19.19
2022-10-01T13:56:16.973Z,19.20
2022-10-01T13:58:46.577Z,19.36
2022-10-01T14:01:21.370Z,19.20
2022-10-01T14:04:19.503Z,18.97
2022-10-01T14:06:57.808Z,18.93
2022-10-01T14:09:33.242Z,19.38
2022-10-01T14:12:36.656Z,18.99
2022-10-01T14:15:34.902Z,18.65
2022-10-01T14:18:06.920Z,19.25
2022-10-01T14:21:03.416Z,18.94
2022-10-01T14:24:04.206Z,19.12
2022-10-01T14:26:57.573Z,19.31
2022-10-01T14:29:58.736Z,19.25
2022-10-01T14:32:53.007Z,19.12
2022-10-01T14:35:43.360Z,19.29
2022-10-01T14:38:19.002Z,18.85
2022-10-01T14:40:50.272Z,18.77
2022-10-01T14:43:26.342Z,19.12
2022-10-01T14:46:02.639Z,18.96
2022-10-01T14:48:32.547Z,18.96
2022-10-01T14:51:03.143Z,19.04
2022-10-01T14:53:42.344Z,19.00
2022-10-01T14:56:14.724Z,18.82
2022-10-01T14:58:45.671Z,18.72
2022-10-01T15:01:26.198Z,18.67
2022-10-01T15:03:58.901Z,18.92
2022-10-01T15:06:30.474Z,18.74
2022-10-01T15:09:17.333Z,18.71
2022-10-01T15:11:50.439Z,18.60
2022-10-01T15:14:22.158Z,18.67
2022-10-01T15:16:50.030Z,18.59
2022-10-01T15:19:21.167Z,18.43
2022-10-01T15:21:55.222Z,18.99
2022-10-01T15:24:38.402Z,18.91
2022-10-01T15:27:09.725Z,18.86
2022-10-01T15:29:39.012Z,18.98
2022-10-01T15:32:07.526Z,19.03
2022-10-01T15:34:35.900Z,18.73
2022-10-01T15:37:04.171Z,18.76
2022-10-01T15:39:42.579Z,18.76
2022-10-01T15:42:34.863Z,19.06
2022-10-01T15:45:07.973Z,18.81
2022-10-01T15:47:52.901Z,19.33
2022-10-01T15:50:28.521Z,18.86
2022-10-01T15:53:08.507Z,18.93
2022-10-01T15:55:51.965Z,19.03
2022-10-01T15:58:29.410Z,18.80
2022-10-01T16:01:22.185Z,19.18
2022-10-01T16:04:00.430Z,19.24
2022-10-01T16:06:54.236Z,19.45
2022-10-01T16:09:30.098Z,19.23
2022-10-01T16:12:13.083Z,19.26
2022-10-01T16:14:45.528Z,19.13
2022-10-01T16:17:40.576Z,19.05
2022-10-01T16:20:22.702Z,19.32
2022-10-01T16:22:49.944Z,19.17
2022-10-01T16:25:23.223Z,19.14
2022-10-01T16:28:04.161Z,19.08
2022-10-01T16:30:34.299Z,19.33
2022-10-01T16:33:10.016Z,19.14
2022-10-01T16:35:39.285Z,19.19
2022-10-01T16:38:11.120Z,19.07
2022-10-01T16:40:52.166Z,19.00
2022-10-01T16:43:23.702Z,19.39
2022-10-01T16:45:51.214Z,19.34
2022-10-01T16:48:23.145Z,19.19
2022-10-01T16:50:54.284Z,19.21
2022-10-01T16:53:25.149Z,19.23
2022-10-01T16:55:57.041Z,19.27
2022-10-01T16:58:25.928Z,19.42
2022-10-01T17:00:53.156Z,19.38
2022-10-01T17:03:22.726Z,19.37
2022-10-01T17:05:51.572Z,19.46
2022-10-01T17:08:21.502Z,19.19
2022-10-01T17:10:57.226Z,19.30
2022-10-01T17:13:28.805Z,18.93
2022-10-01T17:16:10.488Z,19.06
2022-10-01T17:18:41.935Z,19.44
2022-10-01T17:21:13.770Z,19.35
2022-10-01T17:23:43.313Z,19.59
2022-10-01T17:26:10.585Z,19.36
2022-10-01T17:28:37.858Z,19.51
2022-10-01T17:31:12.267Z,19.72
2022-10-01T17:33:44.570Z,19.48
2022-10-01T17:36:11.974Z,19.53
2022-10-01T17:38:40.530Z,19.58
2022-10-01T17:41:10.815Z,19.47
2022-10-01T17:43:41.854Z,19.47
2022-10-01T17:46:15.998Z,19.54
2022-10-01T17:48:43.460Z,19.49
2022-10-01T17:51:14.778Z,19.48
2022-10-01T17:53:48.370Z,19.68
2022-10-01T17:56:19.717Z,19.52
2022-10-01T17:58:47.132Z,19.66
2022-10-01T18:01:26.835Z,19.62
2022-10-01T18:04:20.195Z,19.81
2022-10-01T18:06:52.077Z,19.97
2022-10-01T18:09:22.769Z,19.65
2022-10-01T18:11:53.589Z,19.81
2022-10-01T18:14:43.592Z,19.78
2022-10-01T18:17:43.176Z,20.01
2022-10-01T18:20:17.180Z,19.80
2022-10-01T18:22:50.803Z,19.67
2022-10-01T18:25:38.555Z,19.48
2022-10-01T18:31:12.083Z,19.71
2022-10-01T18:34:03.711Z,19.97
2022-10-01T18:37:00.833Z,20.07
2022-10-01T18:39:39.732Z,20.07
2022-10-01T18:42:23.542Z,19.79
2022-10-01T18:45:00.765Z,20.26
2022-10-01T18:47:59.128Z,19.76
2022-10-01T18:50:51.303Z,19.99
2022-10-01T18:53:35.618Z,20.18
2022-10-01T18:56:22.019Z,20.13
2022-10-01T18:59:22.415Z,20.10
2022-10-01T19:02:30.360Z,20.26
2022-10-01T19:05:36.002Z,20.27
2022-10-01T19:08:47.414Z,20.40
2022-10-01T19:11:49.810Z,20.14
2022-10-01T19:14:44.448Z,20.02
2022-10-01T19:17:38.319Z,20.21
2022-10-01T19:20:25.499Z,20.35
2022-10-01T19:23:32.170Z,20.35
2022-10-01T19:26:22.611Z,20.10
2022-10-01T19:29:17.052Z,20.12
2022-10-01T19:32:02.052Z,20.31
2022-10-01T19:35:02.688Z,20.56
2022-10-01T19:37:45.794Z,20.56
2022-10-01T19:41:11.833Z,20.53
2022-10-01T19:44:04.496Z,20.69
2022-10-01T19:46:50.507Z,20.42
2022-10-01T19:49:26.386Z,20.65
2022-10-01T19:52:26.937Z,20.55
2022-10-01T19:55:20.302Z,20.68
2022-10-01T19:57:47.875Z,20.66
2022-10-01T20:00:42.906Z,20.57
2022-10-01T20:06:09.894Z,20.54
2022-10-01T20:09:15.631Z,20.64
2022-10-01T20:12:24.762Z,20.52
2022-10-01T20:15:46.655Z,20.68
2022-10-01T20:18:36.935Z,20.81
2022-10-01T20:21:29.727Z,20.75
2022-10-01T20:24:21.779Z,20.50
2022-10-01T20:27:32.333Z,20.91
2022-10-01T20:30:09.134Z,21.02
2022-10-01T20:33:24.254Z,20.71
2022-10-01T20:36:13.516Z,20.73
2022-10-01T20:38:51.354Z,20.98
2022-10-01T20:41:21.833Z,20.87
2022-10-01T20:43:59.364Z,20.94
2022-10-01T20:46:38.494Z,20.86
2022-10-01T20:49:18.574Z,20.67
2022-10-01T20:51:59.605Z,21.07
2022-10-01T20:54:37.202Z,20.98
2022-10-01T20:57:39.586Z,21.09
2022-10-01T21:00:25.053Z,21.06
2022-10-01T21:02:55.442Z,20.90
2022-10-01T21:05:28.185Z,20.99
2022-10-01T21:08:33.161Z,20.92
2022-10-01T21:11:17.386Z,21.25
2022-10-01T21:14:25.539Z,20.85
2022-10-01T21:17:25.454Z,21.17
2022-10-01T21:20:32.967Z,21.07
2022-10-01T21:23:18.990Z,21.06
2022-10-01T21:25:55.174Z,20.97
2022-10-01T21:28:29.677Z,21.21
2022-10-01T21:31:44.052Z,21.24
2022-10-01T21:34:23.388Z,21.41
2022-10-01T21:40:49.351Z,21.06
2022-10-01T21:43:34.356Z,21.15
2022-10-01T21:46:07.458Z,21.09
2022-10-01T21:48:56.950Z,21.43
2022-10-01T21:51:42.829Z,21.13
2022-10-01T21:54:31.260Z,21.33
2022-10-01T21:57:26.674Z,21.31
2022-10-01T22:03:10.456Z,20.94
2022-10-01T22:05:53.702Z,21.44
2022-10-01T22:11:16.379Z,21.02
2022-10-01T22:14:08.615Z,21.17
2022-10-01T22:16:49.330Z,21.12
2022-10-01T22:19:22.934Z,21.11
2022-10-01T22:21:56.554Z,21.44
2022-10-01T22:24:39.884Z,21.27
2022-10-01T22:27:30.102Z,21.16
2022-10-01T22:30:22.485Z,21.37
2022-10-01T22:33:20.259Z,21.25
